sensor_id;sensor_type;location;lat;lon;timestamp;P1;durP1;ratioP1;P2;durP2;ratioP2
24813;SDS011;12904;50.088;11.414;2023-08-12T00:01:38;4.40;;;3.92;;
24813;SDS011;12904;50.088;11.414;2023-08-12T00:04:07;7.40;;;3.95;;
24813;SDS011;12904;50.088;11.414;2023-08-12T00:06:32;4.57;;;4.20;;
24813;SDS011;12904;50.088;11.414;2023-08-12T00:08:58;4.00;;;3.70;;
24813;SDS011;12904;50.088;11.414;2023-08-12T00:11:24;5.65;;;4.43;;
24813;SDS011;12904;50.088;11.414;2023-08-12T00:13:49;4.55;;;4.05;;
24813;SDS011;12904;50.088;11.414;2023-08-12T00:16:15;4.40;;;4.00;;
24813;SDS011;12904;50.088;11.414;2023-08-12T00:18:41;5.05;;;4.10;;
24813;SDS011;12904;50.088;11.414;2023-08-12T00:21:08;6.03;;;4.13;;
24813;SDS011;12904;50.088;11.414;2023-08-12T00:23:37;7.32;;;3.40;;
24813;SDS011;12904;50.088;11.414;2023-08-12T00:26:06;4.80;;;3.95;;
24813;SDS011;12904;50.088;11.414;2023-08-12T00:28:33;4.38;;;3.75;;
24813;SDS011;12904;50.088;11.414;2023-08-12T00:30:59;4.07;;;3.30;;
24813;SDS011;12904;50.088;11.414;2023-08-12T00:33:25;6.63;;;3.63;;
24813;SDS011;12904;50.088;11.414;2023-08-12T00:35:50;5.78;;;3.45;;
24813;SDS011;12904;50.088;11.414;2023-08-12T00:38:16;7.80;;;3.38;;
24813;SDS011;12904;50.088;11.414;2023-08-12T00:40:42;4.40;;;3.58;;
24813;SDS011;12904;50.088;11.414;2023-08-12T00:43:08;3.60;;;3.30;;
24813;SDS011;12904;50.088;11.414;2023-08-12T00:45:34;4.30;;;3.90;;
24813;SDS011;12904;50.088;11.414;2023-08-12T00:48:00;4.53;;;4.13;;
24813;SDS011;12904;50.088;11.414;2023-08-12T00:50:27;5.15;;;3.75;;
24813;SDS011;12904;50.088;11.414;2023-08-12T00:52:53;4.55;;;4.15;;
24813;SDS011;12904;50.088;11.414;2023-08-12T00:55:19;5.22;;;3.75;;
24813;SDS011;12904;50.088;11.414;2023-08-12T00:57:45;5.35;;;4.20;;
24813;SDS011;12904;50.088;11.414;2023-08-12T01:00:11;4.18;;;3.60;;
24813;SDS011;12904;50.088;11.414;2023-08-12T01:02:38;4.28;;;3.88;;
24813;SDS011;12904;50.088;11.414;2023-08-12T01:05:04;4.85;;;4.32;;
24813;SDS011;12904;50.088;11.414;2023-08-12T01:07:30;3.60;;;3.28;;
24813;SDS011;12904;50.088;11.414;2023-08-12T01:09:56;4.13;;;3.75;;
24813;SDS011;12904;50.088;11.414;2023-08-12T01:12:26;4.30;;;3.92;;
24813;SDS011;12904;50.088;11.414;2023-08-12T01:15:13;5.50;;;4.10;;
24813;SDS011;12904;50.088;11.414;2023-08-12T01:17:42;14.77;;;5.40;;
24813;SDS011;12904;50.088;11.414;2023-08-12T01:20:09;5.05;;;4.65;;
24813;SDS011;12904;50.088;11.414;2023-08-12T01:22:39;4.53;;;4.17;;
24813;SDS011;12904;50.088;11.414;2023-08-12T01:25:09;5.37;;;4.33;;
24813;SDS011;12904;50.088;11.414;2023-08-12T01:27:35;5.05;;;4.43;;
24813;SDS011;12904;50.088;11.414;2023-08-12T01:30:02;5.43;;;4.97;;
24813;SDS011;12904;50.088;11.414;2023-08-12T01:37:37;4.55;;;4.15;;
24813;SDS011;12904;50.088;11.414;2023-08-12T01:40:04;4.82;;;4.43;;
24813;SDS011;12904;50.088;11.414;2023-08-12T01:42:37;5.03;;;4.53;;
24813;SDS011;12904;50.088;11.414;2023-08-12T01:45:04;5.55;;;5.03;;
24813;SDS011;12904;50.088;11.414;2023-08-12T01:47:31;4.53;;;4.22;;
24813;SDS011;12904;50.088;11.414;2023-08-12T01:49:57;5.75;;;5.22;;
24813;SDS011;12904;50.088;11.414;2023-08-12T01:52:23;4.85;;;4.35;;
24813;SDS011;12904;50.088;11.414;2023-08-12T01:54:50;4.70;;;4.30;;
24813;SDS011;12904;50.088;11.414;2023-08-12T01:57:16;4.75;;;4.35;;
24813;SDS011;12904;50.088;11.414;2023-08-12T01:59:42;5.45;;;4.63;;
24813;SDS011;12904;50.088;11.414;2023-08-12T02:02:09;5.80;;;5.10;;
24813;SDS011;12904;50.088;11.414;2023-08-12T02:04:34;5.38;;;4.97;;
24813;SDS011;12904;50.088;11.414;2023-08-12T02:07:02;5.80;;;4.75;;
24813;SDS011;12904;50.088;11.414;2023-08-12T02:09:28;5.20;;;4.70;;
24813;SDS011;12904;50.088;11.414;2023-08-12T02:11:54;5.90;;;4.45;;
24813;SDS011;12904;50.088;11.414;2023-08-12T02:14:19;6.78;;;4.70;;
24813;SDS011;12904;50.088;11.414;2023-08-12T02:16:45;5.35;;;4.68;;
24813;SDS011;12904;50.088;11.414;2023-08-12T02:19:10;5.15;;;4.32;;
24813;SDS011;12904;50.088;11.414;2023-08-12T02:21:36;5.20;;;4.80;;
24813;SDS011;12904;50.088;11.414;2023-08-12T02:24:02;5.43;;;4.97;;
24813;SDS011;12904;50.088;11.414;2023-08-12T02:26:28;8.38;;;4.88;;
24813;SDS011;12904;50.088;11.414;2023-08-12T02:28:53;5.68;;;5.18;;
24813;SDS011;12904;50.088;11.414;2023-08-12T02:31:19;5.68;;;5.18;;
24813;SDS011;12904;50.088;11.414;2023-08-12T02:33:44;7.20;;;5.80;;
24813;SDS011;12904;50.088;11.414;2023-08-12T02:36:10;5.75;;;5.25;;
24813;SDS011;12904;50.088;11.414;2023-08-12T02:38:36;5.63;;;5.13;;
24813;SDS011;12904;50.088;11.414;2023-08-12T02:41:01;9.75;;;5.50;;
24813;SDS011;12904;50.088;11.414;2023-08-12T02:43:27;5.97;;;5.28;;
24813;SDS011;12904;50.088;11.414;2023-08-12T02:45:52;6.32;;;5.75;;
24813;SDS011;12904;50.088;11.414;2023-08-12T02:48:18;9.95;;;5.47;;
24813;SDS011;12904;50.088;11.414;2023-08-12T02:50:44;5.78;;;5.38;;
24813;SDS011;12904;50.088;11.414;2023-08-12T02:53:09;5.10;;;4.60;;
24813;SDS011;12904;50.088;11.414;2023-08-12T02:55:35;4.90;;;4.07;;
24813;SDS011;12904;50.088;11.414;2023-08-12T02:58:02;6.88;;;6.28;;
24813;SDS011;12904;50.088;11.414;2023-08-12T03:00:28;7.28;;;5.68;;
24813;SDS011;12904;50.088;11.414;2023-08-12T03:02:54;5.70;;;5.20;;
24813;SDS011;12904;50.088;11.414;2023-08-12T03:05:20;6.38;;;5.30;;
24813;SDS011;12904;50.088;11.414;2023-08-12T03:07:45;6.68;;;5.10;;
24813;SDS011;12904;50.088;11.414;2023-08-12T03:10:11;7.47;;;5.63;;
24813;SDS011;12904;50.088;11.414;2023-08-12T03:12:37;5.75;;;5.25;;
24813;SDS011;12904;50.088;11.414;2023-08-12T03:15:03;5.88;;;5.15;;
24813;SDS011;12904;50.088;11.414;2023-08-12T03:17:31;5.80;;;4.65;;
24813;SDS011;12904;50.088;11.414;2023-08-12T03:19:57;4.82;;;4.50;;
24813;SDS011;12904;50.088;11.414;2023-08-12T03:22:24;6.53;;;5.72;;
24813;SDS011;12904;50.088;11.414;2023-08-12T03:24:53;6.03;;;5.53;;
24813;SDS011;12904;50.088;11.414;2023-08-12T03:27:18;6.30;;;5.70;;
24813;SDS011;12904;50.088;11.414;2023-08-12T03:29:44;6.90;;;5.88;;
24813;SDS011;12904;50.088;11.414;2023-08-12T03:32:10;5.40;;;5.00;;
24813;SDS011;12904;50.088;11.414;2023-08-12T03:34:35;5.70;;;5.30;;
24813;SDS011;12904;50.088;11.414;2023-08-12T03:37:01;5.25;;;4.75;;
24813;SDS011;12904;50.088;11.414;2023-08-12T03:39:27;6.35;;;5.80;;
24813;SDS011;12904;50.088;11.414;2023-08-12T03:41:52;6.05;;;5.57;;
24813;SDS011;12904;50.088;11.414;2023-08-12T03:44:18;6.30;;;5.72;;
24813;SDS011;12904;50.088;11.414;2023-08-12T03:46:44;6.13;;;5.53;;
24813;SDS011;12904;50.088;11.414;2023-08-12T03:49:10;5.63;;;5.03;;
24813;SDS011;12904;50.088;11.414;2023-08-12T03:51:35;5.93;;;5.43;;
24813;SDS011;12904;50.088;11.414;2023-08-12T03:54:01;6.10;;;5.60;;
24813;SDS011;12904;50.088;11.414;2023-08-12T03:56:27;6.43;;;5.93;;
24813;SDS011;12904;50.088;11.414;2023-08-12T03:58:52;5.38;;;4.88;;
24813;SDS011;12904;50.088;11.414;2023-08-12T04:01:18;5.45;;;4.95;;
24813;SDS011;12904;50.088;11.414;2023-08-12T04:03:43;5.97;;;5.45;;
24813;SDS011;12904;50.088;11.414;2023-08-12T04:06:09;5.90;;;5.40;;
24813;SDS011;12904;50.088;11.414;2023-08-12T04:08:34;6.63;;;5.50;;
24813;SDS011;12904;50.088;11.414;2023-08-12T04:11:00;7.57;;;5.53;;
24813;SDS011;12904;50.088;11.414;2023-08-12T04:13:26;6.53;;;5.43;;
24813;SDS011;12904;50.088;11.414;2023-08-12T04:15:52;5.38;;;4.95;;
24813;SDS011;12904;50.088;11.414;2023-08-12T04:18:20;5.70;;;4.68;;
24813;SDS011;12904;50.088;11.414;2023-08-12T04:20:47;6.15;;;5.55;;
24813;SDS011;12904;50.088;11.414;2023-08-12T04:23:14;6.68;;;5.03;;
24813;SDS011;12904;50.088;11.414;2023-08-12T04:25:42;5.53;;;5.13;;
24813;SDS011;12904;50.088;11.414;2023-08-12T04:28:09;5.72;;;5.22;;
24813;SDS011;12904;50.088;11.414;2023-08-12T04:30:35;5.80;;;5.30;;
24813;SDS011;12904;50.088;11.414;2023-08-12T04:33:05;6.75;;;5.75;;
24813;SDS011;12904;50.088;11.414;2023-08-12T04:35:31;5.55;;;5.13;;
24813;SDS011;12904;50.088;11.414;2023-08-12T04:37:57;5.95;;;5.45;;
24813;SDS011;12904;50.088;11.414;2023-08-12T04:40:23;5.00;;;4.70;;
24813;SDS011;12904;50.088;11.414;2023-08-12T04:42:48;5.80;;;5.20;;
24813;SDS011;12904;50.088;11.414;2023-08-12T04:45:14;5.07;;;4.57;;
24813;SDS011;12904;50.088;11.414;2023-08-12T04:47:39;5.32;;;4.82;;
24813;SDS011;12904;50.088;11.414;2023-08-12T04:50:05;5.82;;;4.78;;
24813;SDS011;12904;50.088;11.414;2023-08-12T04:52:31;5.55;;;4.57;;
24813;SDS011;12904;50.088;11.414;2023-08-12T04:54:57;6.63;;;4.97;;
24813;SDS011;12904;50.088;11.414;2023-08-12T04:57:23;5.30;;;4.88;;
24813;SDS011;12904;50.088;11.414;2023-08-12T04:59:48;6.63;;;4.93;;
24813;SDS011;12904;50.088;11.414;2023-08-12T05:02:14;5.65;;;4.93;;
24813;SDS011;12904;50.088;11.414;2023-08-12T05:04:39;6.97;;;4.55;;
24813;SDS011;12904;50.088;11.414;2023-08-12T05:07:05;6.53;;;4.63;;
24813;SDS011;12904;50.088;11.414;2023-08-12T05:09:31;4.78;;;4.38;;
24813;SDS011;12904;50.088;11.414;2023-08-12T05:11:56;4.80;;;4.45;;
24813;SDS011;12904;50.088;11.414;2023-08-12T05:14:22;6.97;;;4.65;;
24813;SDS011;12904;50.088;11.414;2023-08-12T05:16:48;4.82;;;4.50;;
24813;SDS011;12904;50.088;11.414;2023-08-12T05:19:13;6.20;;;4.88;;
24813;SDS011;12904;50.088;11.414;2023-08-12T05:21:39;4.85;;;4.40;;
24813;SDS011;12904;50.088;11.414;2023-08-12T05:24:05;5.63;;;5.22;;
24813;SDS011;12904;50.088;11.414;2023-08-12T05:26:32;5.00;;;4.60;;
24813;SDS011;12904;50.088;11.414;2023-08-12T05:28:58;5.80;;;4.55;;
24813;SDS011;12904;50.088;11.414;2023-08-12T05:31:24;6.45;;;4.30;;
24813;SDS011;12904;50.088;11.414;2023-08-12T05:33:49;8.25;;;4.60;;
24813;SDS011;12904;50.088;11.414;2023-08-12T05:36:16;5.32;;;4.68;;
24813;SDS011;12904;50.088;11.414;2023-08-12T05:38:41;4.93;;;4.43;;
24813;SDS011;12904;50.088;11.414;2023-08-12T05:41:07;5.13;;;4.60;;
24813;SDS011;12904;50.088;11.414;2023-08-12T05:43:33;5.95;;;4.10;;
24813;SDS011;12904;50.088;11.414;2023-08-12T05:45:59;4.07;;;3.67;;
24813;SDS011;12904;50.088;11.414;2023-08-12T05:48:24;4.38;;;3.75;;
24813;SDS011;12904;50.088;11.414;2023-08-12T05:50:50;4.25;;;3.90;;
24813;SDS011;12904;50.088;11.414;2023-08-12T05:53:16;3.88;;;3.55;;
24813;SDS011;12904;50.088;11.414;2023-08-12T05:55:41;4.45;;;4.05;;
24813;SDS011;12904;50.088;11.414;2023-08-12T05:58:07;3.95;;;3.55;;
24813;SDS011;12904;50.088;11.414;2023-08-12T06:00:33;6.38;;;4.30;;
24813;SDS011;12904;50.088;11.414;2023-08-12T06:02:58;4.28;;;3.88;;
24813;SDS011;12904;50.088;11.414;2023-08-12T06:05:24;3.70;;;3.40;;
24813;SDS011;12904;50.088;11.414;2023-08-12T06:07:49;5.75;;;3.42;;
24813;SDS011;12904;50.088;11.414;2023-08-12T06:10:15;5.43;;;3.67;;
24813;SDS011;12904;50.088;11.414;2023-08-12T06:12:41;3.17;;;2.88;;
24813;SDS011;12904;50.088;11.414;2023-08-12T06:15:06;2.97;;;2.78;;
24813;SDS011;12904;50.088;11.414;2023-08-12T06:17:32;3.70;;;3.40;;
24813;SDS011;12904;50.088;11.414;2023-08-12T06:19:58;3.53;;;3.17;;
24813;SDS011;12904;50.088;11.414;2023-08-12T06:22:23;3.90;;;3.60;;
24813;SDS011;12904;50.088;11.414;2023-08-12T06:24:49;3.55;;;3.30;;
24813;SDS011;12904;50.088;11.414;2023-08-12T06:27:14;3.97;;;3.08;;
24813;SDS011;12904;50.088;11.414;2023-08-12T06:29:40;4.10;;;2.92;;
24813;SDS011;12904;50.088;11.414;2023-08-12T06:32:05;5.10;;;2.70;;
24813;SDS011;12904;50.088;11.414;2023-08-12T06:34:31;6.40;;;3.63;;
24813;SDS011;12904;50.088;11.414;2023-08-12T06:36:57;6.55;;;5.95;;
24813;SDS011;12904;50.088;11.414;2023-08-12T06:39:22;6.30;;;5.70;;
24813;SDS011;12904;50.088;11.414;2023-08-12T06:41:48;6.32;;;5.65;;
24813;SDS011;12904;50.088;11.414;2023-08-12T06:44:13;8.07;;;6.10;;
24813;SDS011;12904;50.088;11.414;2023-08-12T06:46:39;5.30;;;4.80;;
24813;SDS011;12904;50.088;11.414;2023-08-12T06:49:05;8.65;;;4.00;;
24813;SDS011;12904;50.088;11.414;2023-08-12T06:51:30;4.75;;;3.75;;
24813;SDS011;12904;50.088;11.414;2023-08-12T06:53:56;4.43;;;4.05;;
24813;SDS011;12904;50.088;11.414;2023-08-12T06:56:21;3.42;;;3.13;;
24813;SDS011;12904;50.088;11.414;2023-08-12T06:58:47;7.47;;;3.85;;
24813;SDS011;12904;50.088;11.414;2023-08-12T07:01:13;3.38;;;2.50;;
24813;SDS011;12904;50.088;11.414;2023-08-12T07:03:38;4.28;;;3.08;;
24813;SDS011;12904;50.088;11.414;2023-08-12T07:06:04;3.72;;;3.13;;
24813;SDS011;12904;50.088;11.414;2023-08-12T07:08:29;3.80;;;3.20;;
24813;SDS011;12904;50.088;11.414;2023-08-12T07:10:56;4.05;;;3.10;;
24813;SDS011;12904;50.088;11.414;2023-08-12T07:13:21;3.28;;;2.97;;
24813;SDS011;12904;50.088;11.414;2023-08-12T07:15:47;3.70;;;2.42;;
24813;SDS011;12904;50.088;11.414;2023-08-12T07:18:13;7.25;;;3.05;;
24813;SDS011;12904;50.088;11.414;2023-08-12T07:20:38;4.15;;;2.45;;
24813;SDS011;12904;50.088;11.414;2023-08-12T07:23:04;2.33;;;2.13;;
24813;SDS011;12904;50.088;11.414;2023-08-12T07:25:29;3.97;;;2.15;;
24813;SDS011;12904;50.088;11.414;2023-08-12T07:27:55;2.80;;;2.50;;
24813;SDS011;12904;50.088;11.414;2023-08-12T07:30:21;2.72;;;2.53;;
24813;SDS011;12904;50.088;11.414;2023-08-12T07:32:46;3.15;;;2.83;;
24813;SDS011;12904;50.088;11.414;2023-08-12T07:35:12;2.53;;;2.33;;
24813;SDS011;12904;50.088;11.414;2023-08-12T07:37:38;2.67;;;2.47;;
24813;SDS011;12904;50.088;11.414;2023-08-12T07:40:03;3.17;;;2.50;;
24813;SDS011;12904;50.088;11.414;2023-08-12T07:42:29;3.15;;;2.83;;
24813;SDS011;12904;50.088;11.414;2023-08-12T07:44:55;2.78;;;2.47;;
24813;SDS011;12904;50.088;11.414;2023-08-12T07:47:20;4.22;;;2.08;;
24813;SDS011;12904;50.088;11.414;2023-08-12T07:49:46;2.75;;;2.30;;
24813;SDS011;12904;50.088;11.414;2023-08-12T07:52:12;3.17;;;2.55;;
24813;SDS011;12904;50.088;11.414;2023-08-12T07:54:37;4.30;;;2.67;;
24813;SDS011;12904;50.088;11.414;2023-08-12T07:57:03;4.50;;;2.42;;
24813;SDS011;12904;50.088;11.414;2023-08-12T07:59:28;2.83;;;2.63;;
24813;SDS011;12904;50.088;11.414;2023-08-12T08:01:54;6.88;;;2.67;;
24813;SDS011;12904;50.088;11.414;2023-08-12T08:04:20;3.40;;;2.83;;
24813;SDS011;12904;50.088;11.414;2023-08-12T08:06:45;3.55;;;2.60;;
24813;SDS011;12904;50.088;11.414;2023-08-12T08:09:11;3.38;;;3.08;;
24813;SDS011;12904;50.088;11.414;2023-08-12T08:11:36;3.92;;;3.35;;
24813;SDS011;12904;50.088;11.414;2023-08-12T08:14:02;4.38;;;3.45;;
24813;SDS011;12904;50.088;11.414;2023-08-12T08:16:28;3.33;;;3.10;;
24813;SDS011;12904;50.088;11.414;2023-08-12T08:18:56;3.92;;;3.63;;
24813;SDS011;12904;50.088;11.414;2023-08-12T08:21:22;3.22;;;2.90;;
24813;SDS011;12904;50.088;11.414;2023-08-12T08:23:47;5.28;;;3.17;;
24813;SDS011;12904;50.088;11.414;2023-08-12T08:26:13;3.83;;;3.05;;
24813;SDS011;12904;50.088;11.414;2023-08-12T08:28:40;4.95;;;3.50;;
24813;SDS011;12904;50.088;11.414;2023-08-12T08:31:06;5.55;;;2.85;;
24813;SDS011;12904;50.088;11.414;2023-08-12T08:33:32;4.07;;;3.33;;
24813;SDS011;12904;50.088;11.414;2023-08-12T08:35:57;4.55;;;2.10;;
24813;SDS011;12904;50.088;11.414;2023-08-12T08:38:23;3.92;;;3.03;;
24813;SDS011;12904;50.088;11.414;2023-08-12T08:40:49;4.35;;;2.65;;
24813;SDS011;12904;50.088;11.414;2023-08-12T08:43:15;3.70;;;2.53;;
24813;SDS011;12904;50.088;11.414;2023-08-12T08:45:47;4.30;;;2.53;;
24813;SDS011;12904;50.088;11.414;2023-08-12T08:48:17;3.22;;;2.60;;
24813;SDS011;12904;50.088;11.414;2023-08-12T08:50:44;3.20;;;2.47;;
24813;SDS011;12904;50.088;11.414;2023-08-12T08:53:11;3.83;;;2.53;;
24813;SDS011;12904;50.088;11.414;2023-08-12T08:55:39;3.63;;;2.60;;
24813;SDS011;12904;50.088;11.414;2023-08-12T08:58:06;2.88;;;2.67;;
24813;SDS011;12904;50.088;11.414;2023-08-12T09:00:32;2.78;;;2.17;;
24813;SDS011;12904;50.088;11.414;2023-08-12T09:02:58;2.60;;;1.92;;
24813;SDS011;12904;50.088;11.414;2023-08-12T09:05:24;2.50;;;2.30;;
24813;SDS011;12904;50.088;11.414;2023-08-12T09:07:50;3.03;;;2.40;;
24813;SDS011;12904;50.088;11.414;2023-08-12T09:10:17;2.90;;;2.50;;
24813;SDS011;12904;50.088;11.414;2023-08-12T09:12:45;2.28;;;2.05;;
24813;SDS011;12904;50.088;11.414;2023-08-12T09:15:11;1.92;;;1.83;;
24813;SDS011;12904;50.088;11.414;2023-08-12T09:17:37;2.63;;;2.22;;
24813;SDS011;12904;50.088;11.414;2023-08-12T09:20:04;3.05;;;2.17;;
24813;SDS011;12904;50.088;11.414;2023-08-12T09:22:37;2.95;;;2.33;;
24813;SDS011;12904;50.088;11.414;2023-08-12T09:25:06;16.10;;;2.72;;
24813;SDS011;12904;50.088;11.414;2023-08-12T09:27:33;4.50;;;2.53;;
24813;SDS011;12904;50.088;11.414;2023-08-12T09:30:02;4.38;;;2.63;;
24813;SDS011;12904;50.088;11.414;2023-08-12T09:32:28;2.33;;;2.13;;
24813;SDS011;12904;50.088;11.414;2023-08-12T09:34:54;3.08;;;2.00;;
24813;SDS011;12904;50.088;11.414;2023-08-12T09:37:24;4.40;;;2.10;;
24813;SDS011;12904;50.088;11.414;2023-08-12T09:39:52;2.40;;;2.20;;
24813;SDS011;12904;50.088;11.414;2023-08-12T09:42:18;3.40;;;2.00;;
24813;SDS011;12904;50.088;11.414;2023-08-12T09:44:44;2.88;;;2.30;;
24813;SDS011;12904;50.088;11.414;2023-08-12T09:47:10;4.30;;;2.03;;
24813;SDS011;12904;50.088;11.414;2023-08-12T09:49:36;2.55;;;1.95;;
24813;SDS011;12904;50.088;11.414;2023-08-12T09:52:03;2.45;;;2.15;;
24813;SDS011;12904;50.088;11.414;2023-08-12T09:54:33;4.47;;;1.98;;
24813;SDS011;12904;50.088;11.414;2023-08-12T09:57:00;3.27;;;1.97;;
24813;SDS011;12904;50.088;11.414;2023-08-12T09:59:33;3.72;;;2.17;;
24813;SDS011;12904;50.088;11.414;2023-08-12T10:02:00;2.10;;;1.90;;
24813;SDS011;12904;50.088;11.414;2023-08-12T10:04:35;2.28;;;2.08;;
24813;SDS011;12904;50.088;11.414;2023-08-12T10:07:05;2.63;;;1.90;;
24813;SDS011;12904;50.088;11.414;2023-08-12T10:09:32;2.10;;;1.95;;
24813;SDS011;12904;50.088;11.414;2023-08-12T10:11:58;3.65;;;2.22;;
24813;SDS011;12904;50.088;11.414;2023-08-12T10:14:24;3.25;;;2.58;;
24813;SDS011;12904;50.088;11.414;2023-08-12T10:16:51;6.22;;;2.35;;
24813;SDS011;12904;50.088;11.414;2023-08-12T10:19:18;4.63;;;1.98;;
24813;SDS011;12904;50.088;11.414;2023-08-12T10:21:46;3.10;;;2.15;;
24813;SDS011;12904;50.088;11.414;2023-08-12T10:24:14;2.35;;;1.95;;
24813;SDS011;12904;50.088;11.414;2023-08-12T10:26:42;2.72;;;2.42;;
24813;SDS011;12904;50.088;11.414;2023-08-12T10:29:07;2.10;;;1.90;;
24813;SDS011;12904;50.088;11.414;2023-08-12T10:31:33;2.38;;;1.85;;
24813;SDS011;12904;50.088;11.414;2023-08-12T10:33:59;2.78;;;2.13;;
24813;SDS011;12904;50.088;11.414;2023-08-12T10:36:28;2.03;;;1.92;;
24813;SDS011;12904;50.088;11.414;2023-08-12T10:38:56;4.47;;;1.80;;
24813;SDS011;12904;50.088;11.414;2023-08-12T10:41:25;3.53;;;1.92;;
24813;SDS011;12904;50.088;11.414;2023-08-12T10:49:08;2.80;;;2.30;;
24813;SDS011;12904;50.088;11.414;2023-08-12T10:51:41;3.33;;;2.00;;
24813;SDS011;12904;50.088;11.414;2023-08-12T10:54:24;3.85;;;1.90;;
24813;SDS011;12904;50.088;11.414;2023-08-12T10:57:04;2.72;;;1.80;;
24813;SDS011;12904;50.088;11.414;2023-08-12T11:02:30;2.08;;;1.83;;
24813;SDS011;12904;50.088;11.414;2023-08-12T11:05:06;2.85;;;1.63;;
24813;SDS011;12904;50.088;11.414;2023-08-12T11:07:38;2.22;;;2.03;;
24813;SDS011;12904;50.088;11.414;2023-08-12T11:15:28;1.70;;;1.52;;
24813;SDS011;12904;50.088;11.414;2023-08-12T11:17:54;2.05;;;1.85;;
24813;SDS011;12904;50.088;11.414;2023-08-12T11:20:20;2.40;;;2.05;;
24813;SDS011;12904;50.088;11.414;2023-08-12T11:22:46;1.75;;;1.65;;
24813;SDS011;12904;50.088;11.414;2023-08-12T11:25:13;1.63;;;1.52;;
24813;SDS011;12904;50.088;11.414;2023-08-12T11:30:14;2.40;;;1.73;;
24813;SDS011;12904;50.088;11.414;2023-08-12T11:32:45;2.53;;;1.60;;
24813;SDS011;12904;50.088;11.414;2023-08-12T11:35:12;1.70;;;1.50;;
24813;SDS011;12904;50.088;11.414;2023-08-12T11:37:39;4.65;;;1.88;;
24813;SDS011;12904;50.088;11.414;2023-08-12T11:40:08;1.73;;;1.63;;
24813;SDS011;12904;50.088;11.414;2023-08-12T11:42:35;2.88;;;1.80;;
24813;SDS011;12904;50.088;11.414;2023-08-12T11:45:03;2.20;;;1.40;;
24813;SDS011;12904;50.088;11.414;2023-08-12T11:47:33;2.65;;;1.45;;
24813;SDS011;12904;50.088;11.414;2023-08-12T11:50:03;5.13;;;1.75;;
24813;SDS011;12904;50.088;11.414;2023-08-12T11:52:30;2.63;;;1.60;;
24813;SDS011;12904;50.088;11.414;2023-08-12T11:54:56;2.28;;;1.80;;
24813;SDS011;12904;50.088;11.414;2023-08-12T11:57:23;2.00;;;1.80;;
24813;SDS011;12904;50.088;11.414;2023-08-12T11:59:49;2.33;;;1.80;;
24813;SDS011;12904;50.088;11.414;2023-08-12T12:02:15;2.75;;;1.50;;
24813;SDS011;12904;50.088;11.414;2023-08-12T12:04:41;3.78;;;1.60;;
24813;SDS011;12904;50.088;11.414;2023-08-12T12:10:03;3.70;;;1.70;;
24813;SDS011;12904;50.088;11.414;2023-08-12T12:12:30;2.25;;;1.40;;
24813;SDS011;12904;50.088;11.414;2023-08-12T12:15:02;1.95;;;1.70;;
24813;SDS011;12904;50.088;11.414;2023-08-12T12:17:28;2.40;;;1.50;;
24813;SDS011;12904;50.088;11.414;2023-08-12T12:19:57;2.40;;;1.48;;
24813;SDS011;12904;50.088;11.414;2023-08-12T12:22:31;2.45;;;1.60;;
24813;SDS011;12904;50.088;11.414;2023-08-12T12:25:05;1.55;;;1.30;;
24813;SDS011;12904;50.088;11.414;2023-08-12T12:27:32;1.75;;;1.60;;
24813;SDS011;12904;50.088;11.414;2023-08-12T12:29:59;2.80;;;1.90;;
24813;SDS011;12904;50.088;11.414;2023-08-12T12:32:25;1.58;;;1.27;;
24813;SDS011;12904;50.088;11.414;2023-08-12T12:34:51;2.67;;;1.33;;
24813;SDS011;12904;50.088;11.414;2023-08-12T12:37:18;1.73;;;1.60;;
24813;SDS011;12904;50.088;11.414;2023-08-12T12:39:43;2.13;;;1.60;;
24813;SDS011;12904;50.088;11.414;2023-08-12T12:42:10;3.10;;;1.52;;
24813;SDS011;12904;50.088;11.414;2023-08-12T12:44:35;2.17;;;1.70;;
24813;SDS011;12904;50.088;11.414;2023-08-12T12:47:02;2.17;;;1.83;;
24813;SDS011;12904;50.088;11.414;2023-08-12T12:49:28;2.40;;;1.80;;
24813;SDS011;12904;50.088;11.414;2023-08-12T12:51:53;1.85;;;1.70;;
24813;SDS011;12904;50.088;11.414;2023-08-12T12:54:19;3.75;;;1.60;;
24813;SDS011;12904;50.088;11.414;2023-08-12T12:56:45;1.65;;;1.35;;
24813;SDS011;12904;50.088;11.414;2023-08-12T12:59:11;2.50;;;1.73;;
24813;SDS011;12904;50.088;11.414;2023-08-12T13:01:36;2.92;;;1.52;;
24813;SDS011;12904;50.088;11.414;2023-08-12T13:04:02;3.30;;;1.85;;
24813;SDS011;12904;50.088;11.414;2023-08-12T13:06:28;2.55;;;1.60;;
24813;SDS011;12904;50.088;11.414;2023-08-12T13:08:53;1.92;;;1.58;;
24813;SDS011;12904;50.088;11.414;2023-08-12T13:11:19;1.85;;;1.70;;
24813;SDS011;12904;50.088;11.414;2023-08-12T13:13:45;3.03;;;1.70;;
24813;SDS011;12904;50.088;11.414;2023-08-12T13:16:10;3.85;;;1.50;;
24813;SDS011;12904;50.088;11.414;2023-08-12T13:18:36;1.73;;;1.63;;
24813;SDS011;12904;50.088;11.414;2023-08-12T13:21:02;1.75;;;1.65;;
24813;SDS011;12904;50.088;11.414;2023-08-12T13:23:27;2.20;;;1.52;;
24813;SDS011;12904;50.088;11.414;2023-08-12T13:25:53;4.57;;;2.00;;
24813;SDS011;12904;50.088;11.414;2023-08-12T13:28:18;8.88;;;1.85;;
24813;SDS011;12904;50.088;11.414;2023-08-12T13:30:44;3.45;;;1.90;;
24813;SDS011;12904;50.088;11.414;2023-08-12T13:33:11;2.00;;;1.90;;
24813;SDS011;12904;50.088;11.414;2023-08-12T13:35:36;2.95;;;2.28;;
24813;SDS011;12904;50.088;11.414;2023-08-12T13:38:02;4.57;;;1.85;;
24813;SDS011;12904;50.088;11.414;2023-08-12T13:40:28;7.95;;;2.42;;
24813;SDS011;12904;50.088;11.414;2023-08-12T13:42:54;3.03;;;2.00;;
24813;SDS011;12904;50.088;11.414;2023-08-12T13:45:20;1.95;;;1.83;;
24813;SDS011;12904;50.088;11.414;2023-08-12T13:47:45;5.97;;;2.08;;
24813;SDS011;12904;50.088;11.414;2023-08-12T13:50:11;2.63;;;2.30;;
24813;SDS011;12904;50.088;11.414;2023-08-12T13:52:38;6.22;;;2.72;;
24813;SDS011;12904;50.088;11.414;2023-08-12T13:55:04;7.82;;;1.75;;
24813;SDS011;12904;50.088;11.414;2023-08-12T13:57:31;3.78;;;0.80;;
24813;SDS011;12904;50.088;11.414;2023-08-12T13:59:56;4.15;;;1.10;;
24813;SDS011;12904;50.088;11.414;2023-08-12T14:02:22;2.25;;;1.00;;
24813;SDS011;12904;50.088;11.414;2023-08-12T14:04:48;1.35;;;0.70;;
24813;SDS011;12904;50.088;11.414;2023-08-12T14:07:14;0.80;;;0.60;;
24813;SDS011;12904;50.088;11.414;2023-08-12T14:09:39;2.60;;;0.60;;
24813;SDS011;12904;50.088;11.414;2023-08-12T14:12:06;1.95;;;0.55;;
24813;SDS011;12904;50.088;11.414;2023-08-12T14:14:32;3.45;;;0.60;;
24813;SDS011;12904;50.088;11.414;2023-08-12T14:16:58;0.90;;;0.40;;
24813;SDS011;12904;50.088;11.414;2023-08-12T14:19:23;0.50;;;0.40;;
24813;SDS011;12904;50.088;11.414;2023-08-12T14:21:49;2.58;;;0.55;;
24813;SDS011;12904;50.088;11.414;2023-08-12T14:24:14;1.90;;;0.57;;
24813;SDS011;12904;50.088;11.414;2023-08-12T14:26:40;1.23;;;0.73;;
24813;SDS011;12904;50.088;11.414;2023-08-12T14:29:06;0.93;;;0.57;;
24813;SDS011;12904;50.088;11.414;2023-08-12T14:31:32;1.88;;;0.70;;
24813;SDS011;12904;50.088;11.414;2023-08-12T14:33:58;2.53;;;0.70;;
24813;SDS011;12904;50.088;11.414;2023-08-12T14:36:24;2.65;;;1.13;;
24813;SDS011;12904;50.088;11.414;2023-08-12T14:38:50;1.30;;;0.70;;
24813;SDS011;12904;50.088;11.414;2023-08-12T14:41:15;4.68;;;0.88;;
24813;SDS011;12904;50.088;11.414;2023-08-12T14:43:41;3.38;;;0.70;;
24813;SDS011;12904;50.088;11.414;2023-08-12T14:46:07;3.20;;;1.02;;
24813;SDS011;12904;50.088;11.414;2023-08-12T14:48:32;2.95;;;0.70;;
24813;SDS011;12904;50.088;11.414;2023-08-12T14:50:58;0.90;;;0.60;;
24813;SDS011;12904;50.088;11.414;2023-08-12T14:53:24;0.63;;;0.60;;